Date,TemperatureHighF,TemperatureAvgF,TemperatureLowF,DewpointHighF,DewpointAvgF,DewpointLowF,HumidityHigh,HumidityAvg,HumidityLow,PressureMaxIn,PressureMinIn,WindSpeedMaxMPH,WindSpeedAvgMPH,GustSpeedMaxMPH,PrecipitationSumIn
2013-1-1,42,34,26,33,26,22,90,76,61,30.65,30.54,8,1,8,0.01
2013-1-2,42,36,33,27,24,22,68,62,53,30.54,30.40,13,3,13,0.00
2013-1-3,41,37,33,30,24,21,71,61,51,30.44,30.33,12,2,12,0.00
2013-1-4,46,39,36,41,35,30,90,83,71,30.54,30.38,4,0,4,0.03
2013-1-5,41,37,36,34,32,29,88,82,72,30.42,30.35,7,0,7,0.02
2013-1-6,44,40,36,41,36,32,91,87,85,30.44,30.25,6,0,6,0.14
2013-1-7,53,48,44,49,44,41,90,88,83,30.40,30.18,12,2,12,0.14
2013-1-8,54,50,44,50,46,41,92,87,76,30.40,30.08,14,2,14,0.05
2013-1-9,52,42,34,45,38,31,89,84,76,30.18,29.89,10,1,10,0.13
2013-1-10,41,37,32,37,33,29,90,88,83,30.30,30.17,3,0,3,0.08
2013-1-11,41,32,27,35,29,23,91,86,71,30.51,30.29,6,0,6,0.00
2013-1-12,35,29,25,31,26,22,90,88,84,30.60,30.49,2,0,2,0.00
2013-1-13,33,29,27,28,26,24,89,87,82,30.69,30.58,3,0,3,0.00
2013-1-14,34,32,29,30,28,25,89,86,83,30.76,30.68,3,0,3,0.01
2013-1-15,40,36,33,36,32,30,90,88,84,30.86,30.75,3,0,3,0.01
2013-1-16,37,35,34,34,32,30,89,88,86,30.84,30.68,3,0,3,0.00
2013-1-17,44,35,29,38,31,26,90,86,76,30.69,30.51,4,0,4,0.00
2013-1-18,44,32,27,37,28,24,90,86,77,30.53,30.46,3,0,3,0.00
2013-1-19,42,32,27,37,29,24,90,87,81,30.54,30.46,2,0,2,0.01
2013-1-20,45,32,26,37,28,23,90,84,72,30.56,30.43,2,0,2,0.00
2013-1-21,45,31,23,35,26,20,89,82,68,30.47,30.35,4,0,4,0.00
2013-1-22,44,31,22,34,26,19,88,80,62,30.35,30.14,4,0,4,0.01
2013-1-23,37,35,33,32,30,27,89,82,73,30.40,30.09,3,0,3,0.23
2013-1-24,42,36,34,38,33,31,90,89,87,30.42,30.30,2,0,2,0.00
2013-1-25,50,44,40,47,42,38,91,91,88,30.28,30.15,2,0,2,0.07
2013-1-26,47,41,36,42,38,33,92,88,81,30.29,30.11,10,0,10,0.10
2013-1-27,43,40,37,40,37,34,91,89,86,30.35,30.24,4,0,4,0.06
2013-1-28,45,41,38,42,39,36,92,90,88,30.40,30.27,3,0,3,0.30
2013-1-29,49,45,42,46,42,39,93,90,87,30.66,30.39,7,1,7,0.05
2013-1-30,52,47,44,47,43,40,89,87,82,30.65,30.60,8,2,8,0.00
2013-1-31,54,48,44,49,44,42,92,86,75,30.64,30.52,5,0,5,0.00